createdAt,value
2022-09-10T00:01:52.998Z,16.40
2022-09-10T00:04:19.599Z,16.40
2022-09-10T00:06:46.237Z,16.40
2022-09-10T00:09:13.725Z,16.50
2022-09-10T00:11:41.587Z,16.50
2022-09-10T00:14:09.630Z,16.50
2022-09-10T00:16:36.284Z,16.60
2022-09-10T00:19:03.879Z,16.60
2022-09-10T00:21:30.602Z,16.60
2022-09-10T00:23:57.542Z,16.60
2022-09-10T00:26:28.379Z,16.70
2022-09-10T00:28:56.425Z,16.70
2022-09-10T00:31:23.279Z,16.60
2022-09-10T00:33:50.477Z,16.60
2022-09-10T00:36:19.308Z,16.60
2022-09-10T00:38:46.398Z,16.70
2022-09-10T00:41:14.217Z,16.70
2022-09-10T00:43:52.064Z,16.70
2022-09-10T00:46:37.046Z,16.60
2022-09-10T00:49:12.412Z,16.70
2022-09-10T00:51:40.370Z,16.60
2022-09-10T00:54:07.612Z,16.60
2022-09-10T00:56:34.810Z,16.60
2022-09-10T00:59:02.731Z,16.60
2022-09-10T01:01:29.344Z,16.60
2022-09-10T01:03:56.002Z,16.60
2022-09-10T01:06:23.923Z,16.60
2022-09-10T01:08:50.735Z,16.60
2022-09-10T01:11:23.441Z,16.60
2022-09-10T01:13:50.024Z,16.60
2022-09-10T01:16:35.554Z,16.60
2022-09-10T01:19:08.203Z,16.60
2022-09-10T01:21:44.878Z,16.50
2022-09-10T01:24:16.570Z,16.50
2022-09-10T01:26:51.731Z,16.50
2022-09-10T01:29:21.459Z,16.60
2022-09-10T01:31:50.902Z,16.50
2022-09-10T01:34:27.411Z,16.50
2022-09-10T01:36:54.848Z,16.50
2022-09-10T01:39:23.685Z,16.50
2022-09-10T01:41:52.607Z,16.50
2022-09-10T01:44:39.965Z,16.50
2022-09-10T01:47:13.918Z,16.40
2022-09-10T01:49:53.541Z,16.40
2022-09-10T01:52:22.119Z,16.40
2022-09-10T01:54:52.557Z,16.40
2022-09-10T01:57:33.296Z,16.40
2022-09-10T02:00:05.935Z,16.40
2022-09-10T02:02:41.843Z,16.40
2022-09-10T02:05:09.326Z,16.40
2022-09-10T02:07:37.770Z,16.40
2022-09-10T02:10:05.721Z,16.40
2022-09-10T02:12:36.673Z,16.40
2022-09-10T02:15:23.419Z,16.50
2022-09-10T02:17:56.606Z,16.40
2022-09-10T02:20:23.347Z,16.40
2022-09-10T02:22:55.106Z,16.50
2022-09-10T02:25:21.670Z,16.50
2022-09-10T02:27:48.946Z,16.50
2022-09-10T02:30:16.817Z,16.50
2022-09-10T02:32:43.359Z,16.40
2022-09-10T02:35:13.476Z,16.40
2022-09-10T02:37:40.082Z,16.40
2022-09-10T02:40:07.341Z,16.50
2022-09-10T02:42:34.207Z,16.50
2022-09-10T02:45:01.849Z,16.40
2022-09-10T02:47:29.975Z,16.40
2022-09-10T02:49:56.577Z,16.40
2022-09-10T02:52:23.415Z,16.40
2022-09-10T02:54:50.559Z,16.50
2022-09-10T02:57:17.141Z,16.50
2022-09-10T02:59:43.687Z,16.50
2022-09-10T03:02:11.386Z,16.50
2022-09-10T03:04:38.523Z,16.60
2022-09-10T03:07:05.226Z,16.50
2022-09-10T03:09:35.575Z,16.60
2022-09-10T03:12:02.241Z,16.60
2022-09-10T03:14:31.554Z,16.60
2022-09-10T03:16:58.265Z,16.60
2022-09-10T03:19:25.639Z,16.70
2022-09-10T03:21:52.953Z,16.70
2022-09-10T03:24:19.690Z,16.60
2022-09-10T03:26:46.370Z,16.60
2022-09-10T03:29:15.467Z,16.60
2022-09-10T03:31:42.675Z,16.70
2022-09-10T03:34:10.812Z,16.70
2022-09-10T03:36:37.821Z,16.70
2022-09-10T03:39:06.652Z,16.70
2022-09-10T03:41:33.834Z,16.80
2022-09-10T03:44:00.994Z,16.80
2022-09-10T03:46:27.675Z,16.80
2022-09-10T03:48:57.074Z,16.80
2022-09-10T03:51:25.516Z,16.70
2022-09-10T03:53:52.091Z,16.70
2022-09-10T03:56:20.962Z,16.80
2022-09-10T03:58:49.061Z,16.80
2022-09-10T04:01:19.315Z,16.90
2022-09-10T04:03:48.443Z,16.90
2022-09-10T04:06:16.180Z,16.90
2022-09-10T04:08:46.128Z,16.90
2022-09-10T04:11:14.727Z,16.90
2022-09-10T04:13:42.349Z,16.90
2022-09-10T04:16:11.806Z,16.80
2022-09-10T04:18:39.422Z,16.80
2022-09-10T04:21:06.369Z,16.70
2022-09-10T04:23:33.700Z,16.80
2022-09-10T04:26:17.509Z,16.80
2022-09-10T04:28:46.878Z,16.80
2022-09-10T04:31:15.579Z,16.80
2022-09-10T04:33:42.411Z,16.70
2022-09-10T04:36:09.506Z,16.70
2022-09-10T04:38:41.539Z,16.80
2022-09-10T04:41:09.223Z,16.70
2022-09-10T04:43:37.112Z,16.70
2022-09-10T04:46:05.035Z,16.70
2022-09-10T04:48:32.990Z,16.70
2022-09-10T04:51:15.665Z,16.70
2022-09-10T04:53:45.612Z,16.70
2022-09-10T04:56:12.717Z,16.70
2022-09-10T04:58:39.911Z,16.70
2022-09-10T05:01:07.672Z,16.70
2022-09-10T05:03:34.417Z,16.80
2022-09-10T05:06:02.363Z,16.80
2022-09-10T05:08:29.451Z,16.80
2022-09-10T05:10:58.066Z,16.80
2022-09-10T05:13:24.616Z,16.90
2022-09-10T05:15:51.675Z,16.90
2022-09-10T05:18:18.322Z,16.80
2022-09-10T05:20:45.183Z,16.80
2022-09-10T05:23:11.943Z,16.80
2022-09-10T05:25:39.225Z,16.80
2022-09-10T05:28:06.688Z,16.70
2022-09-10T05:30:33.343Z,16.70
2022-09-10T05:33:00.885Z,16.70
2022-09-10T05:35:29.380Z,16.70
2022-09-10T05:37:57.075Z,16.70
2022-09-10T05:40:25.244Z,16.80
2022-09-10T05:42:53.268Z,16.80
2022-09-10T05:45:21.531Z,16.80
2022-09-10T05:47:48.097Z,16.80
2022-09-10T05:50:19.120Z,16.90
2022-09-10T05:52:46.705Z,17.00
2022-09-10T05:55:13.468Z,17.00
2022-09-10T05:57:40.501Z,17.00
2022-09-10T06:00:11.613Z,17.10
2022-09-10T06:02:41.615Z,17.10
2022-09-10T06:05:23.022Z,17.10
2022-09-10T06:07:50.649Z,17.20
2022-09-10T06:10:17.370Z,17.20
2022-09-10T06:12:46.481Z,17.20
2022-09-10T06:15:13.404Z,17.30
2022-09-10T06:17:40.203Z,17.30
2022-09-10T06:20:07.045Z,17.40
2022-09-10T06:22:38.356Z,17.40
2022-09-10T06:25:06.327Z,17.40
2022-09-10T06:27:33.107Z,17.40
2022-09-10T06:30:01.760Z,17.40
2022-09-10T06:32:31.294Z,17.50
2022-09-10T06:34:59.630Z,17.50
2022-09-10T06:37:26.940Z,17.60
2022-09-10T06:39:55.095Z,17.60
2022-09-10T06:42:23.128Z,17.70
2022-09-10T06:44:57.478Z,17.70
2022-09-10T06:48:32.289Z,17.80
2022-09-10T06:50:21.063Z,17.80
2022-09-10T06:52:49.867Z,17.90
2022-09-10T06:55:20.017Z,17.90
2022-09-10T06:57:47.319Z,17.90
2022-09-10T07:00:16.048Z,18.00
2022-09-10T07:02:45.207Z,18.00
2022-09-10T07:05:12.383Z,18.00
2022-09-10T07:07:41.650Z,18.10
2022-09-10T07:10:08.867Z,18.10
2022-09-10T07:12:35.958Z,18.10
2022-09-10T07:15:02.640Z,18.10
2022-09-10T07:17:34.422Z,18.10
2022-09-10T07:20:01.047Z,18.00
2022-09-10T07:22:39.509Z,18.10
2022-09-10T07:25:09.756Z,18.20
2022-09-10T07:28:16.056Z,18.30
2022-09-10T07:30:46.383Z,18.40
2022-09-10T07:33:15.074Z,18.60
2022-09-10T07:35:44.030Z,18.70
2022-09-10T07:38:14.005Z,18.80
2022-09-10T07:40:42.885Z,18.90
2022-09-10T07:43:09.872Z,19.00
2022-09-10T07:45:36.660Z,19.10
2022-09-10T07:48:04.782Z,19.10
2022-09-10T07:50:36.593Z,19.20
2022-09-10T07:53:03.179Z,19.20
2022-09-10T07:55:31.438Z,19.10
2022-09-10T07:58:00.217Z,19.10
2022-09-10T08:00:29.118Z,19.10
2022-09-10T08:02:59.094Z,19.20
2022-09-10T08:05:28.714Z,19.10
2022-09-10T08:07:55.380Z,19.10
2022-09-10T08:10:24.624Z,19.10
2022-09-10T08:12:52.119Z,19.00
2022-09-10T08:15:18.735Z,18.90
2022-09-10T08:17:46.175Z,19.00
2022-09-10T08:20:13.463Z,19.00
2022-09-10T08:22:43.160Z,18.90
2022-09-10T08:25:10.724Z,18.90
2022-09-10T08:27:37.402Z,19.00
2022-09-10T08:30:06.354Z,19.10
2022-09-10T08:32:34.387Z,19.20
2022-09-10T08:35:01.555Z,19.20
2022-09-10T08:37:30.938Z,19.30
2022-09-10T08:39:57.929Z,19.20
2022-09-10T08:42:36.638Z,19.30
2022-09-10T08:45:08.558Z,19.30
2022-09-10T08:48:07.445Z,19.30
2022-09-10T08:50:52.987Z,19.30
2022-09-10T08:53:22.939Z,19.30
2022-09-10T08:55:50.626Z,19.30
2022-09-10T08:58:23.232Z,19.30
2022-09-10T09:00:53.734Z,19.30
2022-09-10T09:03:25.349Z,19.30
2022-09-10T09:05:58.215Z,19.30
2022-09-10T09:08:35.531Z,19.30
2022-09-10T09:11:31.811Z,19.30
2022-09-10T09:14:07.379Z,19.30
2022-09-10T09:16:34.226Z,19.30
2022-09-10T09:19:22.500Z,19.30
2022-09-10T09:21:53.274Z,19.30
2022-09-10T09:24:41.200Z,19.30
2022-09-10T09:27:12.636Z,19.30
2022-09-10T09:29:51.172Z,19.30
2022-09-10T09:32:20.238Z,19.40
2022-09-10T09:34:50.420Z,19.40
2022-09-10T09:37:26.970Z,19.50
2022-09-10T09:40:05.678Z,19.50
2022-09-10T09:42:48.899Z,19.60
2022-09-10T09:45:24.786Z,19.70
2022-09-10T09:47:52.242Z,19.80
2022-09-10T09:50:19.009Z,19.90
2022-09-10T09:52:45.975Z,20.00
2022-09-10T09:55:34.832Z,20.20
2022-09-10T09:58:20.849Z,20.30
2022-09-10T10:01:12.938Z,20.40
2022-09-10T10:03:48.606Z,20.40
2022-09-10T10:06:16.263Z,20.50
2022-09-10T10:08:44.161Z,20.60
2022-09-10T10:11:13.453Z,20.60
2022-09-10T10:13:41.523Z,20.70
2022-09-10T10:16:23.486Z,20.80
2022-09-10T10:18:50.320Z,21.00
2022-09-10T10:21:18.590Z,21.20
2022-09-10T10:23:45.536Z,21.40
2022-09-10T10:26:18.234Z,21.50
2022-09-10T10:28:46.442Z,21.70
2022-09-10T10:31:14.534Z,21.70
2022-09-10T10:33:48.285Z,21.70
2022-09-10T10:36:52.191Z,21.60
2022-09-10T10:39:19.232Z,21.50
2022-09-10T10:42:13.652Z,21.40
2022-09-10T10:44:55.730Z,21.30
2022-09-10T10:47:45.571Z,21.10
2022-09-10T10:50:15.042Z,21.00
2022-09-10T10:52:41.577Z,20.90
2022-09-10T10:55:22.755Z,20.80
2022-09-10T10:57:52.286Z,20.80
2022-09-10T11:00:20.056Z,20.80
2022-09-10T11:02:54.492Z,20.90
2022-09-10T11:05:31.062Z,20.90
2022-09-10T11:08:05.402Z,21.00
2022-09-10T11:10:59.928Z,21.00
2022-09-10T11:13:35.999Z,21.10
2022-09-10T11:16:05.632Z,21.20
2022-09-10T11:18:33.393Z,21.20
2022-09-10T11:21:12.426Z,21.20
2022-09-10T11:23:48.841Z,21.20
2022-09-10T11:26:19.269Z,21.10
2022-09-10T11:29:04.862Z,21.10
2022-09-10T11:31:37.695Z,21.10
2022-09-10T11:34:12.461Z,21.10
2022-09-10T11:36:45.726Z,21.10
2022-09-10T11:39:23.422Z,21.10
2022-09-10T11:41:51.903Z,21.10
2022-09-10T11:44:21.505Z,21.00
2022-09-10T11:46:48.018Z,21.00
2022-09-10T11:49:18.135Z,21.00
2022-09-10T11:51:45.041Z,21.00
2022-09-10T11:54:14.051Z,21.00
2022-09-10T11:56:49.874Z,21.10
2022-09-10T11:59:35.280Z,21.10
2022-09-10T12:02:20.743Z,21.10
2022-09-10T12:05:03.806Z,21.20
2022-09-10T12:07:39.439Z,21.40
2022-09-10T12:10:15.255Z,21.40
2022-09-10T12:12:43.144Z,21.40
2022-09-10T12:15:15.512Z,21.50
2022-09-10T12:17:43.663Z,21.60
2022-09-10T12:20:15.517Z,21.80
2022-09-10T12:22:42.632Z,21.90
2022-09-10T12:25:09.225Z,22.00
2022-09-10T12:27:48.953Z,22.10
2022-09-10T12:30:33.668Z,22.20
2022-09-10T12:33:02.090Z,22.30
2022-09-10T12:35:31.592Z,22.30
2022-09-10T12:38:17.298Z,22.30
2022-09-10T12:40:44.722Z,22.30
2022-09-10T12:43:43.935Z,22.30
2022-09-10T12:46:10.536Z,22.30
2022-09-10T12:48:39.928Z,22.20
2022-09-10T12:51:12.763Z,22.10
2022-09-10T12:53:42.478Z,22.20
2022-09-10T12:56:21.453Z,22.10
2022-09-10T12:58:47.999Z,22.00
2022-09-10T13:01:26.810Z,22.00
2022-09-10T13:03:56.014Z,22.10
2022-09-10T13:06:35.958Z,22.00
2022-09-10T13:09:04.006Z,22.10
2022-09-10T13:11:32.122Z,22.00
2022-09-10T13:14:03.915Z,22.00
2022-09-10T13:16:30.468Z,22.00
2022-09-10T13:19:17.452Z,22.00
2022-09-10T13:21:44.006Z,22.00
2022-09-10T13:24:32.340Z,21.90
2022-09-10T13:27:17.195Z,21.90
2022-09-10T13:29:45.738Z,21.80
2022-09-10T13:32:16.236Z,21.80
2022-09-10T13:34:42.747Z,21.90
2022-09-10T13:37:28.164Z,22.00
2022-09-10T13:40:10.452Z,22.30
2022-09-10T13:42:43.307Z,22.60
2022-09-10T13:45:29.333Z,22.80
2022-09-10T13:47:59.679Z,22.90
2022-09-10T13:50:28.689Z,22.90
2022-09-10T13:52:57.710Z,22.80
2022-09-10T13:55:28.307Z,22.80
2022-09-10T13:57:57.850Z,22.70
2022-09-10T14:00:27.599Z,22.60
2022-09-10T14:02:55.402Z,22.60
2022-09-10T14:05:23.147Z,22.60
2022-09-10T14:07:50.944Z,23.20
2022-09-10T14:10:18.512Z,24.60
2022-09-10T14:12:45.747Z,26.10
2022-09-10T14:15:16.955Z,27.70
2022-09-10T14:17:50.613Z,28.80
2022-09-10T14:20:37.621Z,29.30
2022-09-10T14:23:05.638Z,29.20
2022-09-10T14:25:33.917Z,28.80
2022-09-10T14:28:15.766Z,28.30
2022-09-10T14:30:44.036Z,27.80
2022-09-10T14:33:20.502Z,27.20
2022-09-10T14:35:49.202Z,27.00
2022-09-10T14:38:23.189Z,26.70
2022-09-10T14:40:52.077Z,26.30
2022-09-10T14:43:35.293Z,25.90
2022-09-10T14:46:03.121Z,25.70
2022-09-10T14:48:50.008Z,25.30
2022-09-10T14:51:17.543Z,25.10
2022-09-10T14:53:45.596Z,25.70
2022-09-10T14:56:22.183Z,26.80
2022-09-10T14:59:11.477Z,28.20
2022-09-10T15:01:40.246Z,28.70
2022-09-10T15:04:08.755Z,28.60
2022-09-10T15:06:35.779Z,28.20
2022-09-10T15:09:02.363Z,27.80
2022-09-10T15:11:29.031Z,27.50
2022-09-10T15:13:55.971Z,27.30
2022-09-10T15:16:25.747Z,27.00
2022-09-10T15:18:52.294Z,26.80
2022-09-10T15:21:19.299Z,26.70
2022-09-10T15:23:46.142Z,26.60
2022-09-10T15:26:13.757Z,26.60
2022-09-10T15:28:41.100Z,26.60
2022-09-10T15:31:07.797Z,26.50
2022-09-10T15:33:34.521Z,26.50
2022-09-10T15:36:01.576Z,26.50
2022-09-10T15:38:28.180Z,26.60
2022-09-10T15:41:03.720Z,26.60
2022-09-10T15:43:35.440Z,26.60
2022-09-10T15:46:02.091Z,26.70
2022-09-10T15:48:30.506Z,26.70
2022-09-10T15:50:59.823Z,26.80
2022-09-10T15:53:26.355Z,27.00
2022-09-10T15:55:53.220Z,27.20
2022-09-10T15:58:19.762Z,27.30
2022-09-10T16:00:46.453Z,27.50
2022-09-10T16:03:12.975Z,27.60
2022-09-10T16:05:39.542Z,27.90
2022-09-10T16:08:06.147Z,28.10
2022-09-10T16:10:33.254Z,28.20
2022-09-10T16:12:59.905Z,28.40
2022-09-10T16:15:26.985Z,28.70
2022-09-10T16:17:53.538Z,28.90
2022-09-10T16:20:20.196Z,29.10
2022-09-10T16:22:47.525Z,29.30
2022-09-10T16:25:14.163Z,29.50
2022-09-10T16:27:43.341Z,29.70
2022-09-10T16:30:10.614Z,29.80
2022-09-10T16:32:37.170Z,30.10
2022-09-10T16:35:04.813Z,30.30
2022-09-10T16:37:33.395Z,30.60
2022-09-10T16:40:00.719Z,30.90
2022-09-10T16:42:28.886Z,31.10
2022-09-10T16:44:56.231Z,31.40
2022-09-10T16:47:22.785Z,31.40
2022-09-10T16:49:49.401Z,30.60
2022-09-10T16:52:16.073Z,29.80
2022-09-10T16:54:42.847Z,29.00
2022-09-10T16:57:09.418Z,28.30
2022-09-10T16:59:35.984Z,27.60
2022-09-10T17:02:02.679Z,27.00
2022-09-10T17:04:29.610Z,26.50
2022-09-10T17:06:57.446Z,26.00
2022-09-10T17:09:24.827Z,25.60
2022-09-10T17:11:51.612Z,25.30
2022-09-10T17:14:18.227Z,25.00
2022-09-10T17:16:44.921Z,24.70
2022-09-10T17:19:11.491Z,24.50
2022-09-10T17:21:39.124Z,24.30
2022-09-10T17:24:09.094Z,24.10
2022-09-10T17:26:37.064Z,24.00
2022-09-10T17:29:04.895Z,23.80
2022-09-10T17:31:32.259Z,23.70
2022-09-10T17:33:59.449Z,23.60
2022-09-10T17:36:26.265Z,23.50
2022-09-10T17:38:53.926Z,23.30
2022-09-10T17:41:21.666Z,23.30
2022-09-10T17:43:48.403Z,23.20
2022-09-10T17:46:15.928Z,23.10
2022-09-10T17:48:45.220Z,23.00
2022-09-10T17:51:12.552Z,22.90
2022-09-10T17:53:39.128Z,22.90
2022-09-10T17:56:06.466Z,22.80
2022-09-10T17:58:33.487Z,22.80
2022-09-10T18:01:01.369Z,22.70
2022-09-10T18:03:28.008Z,22.60
2022-09-10T18:05:54.598Z,22.50
2022-09-10T18:08:21.861Z,22.40
2022-09-10T18:10:48.674Z,22.30
2022-09-10T18:13:15.219Z,22.20
2022-09-10T18:15:47.871Z,22.10
2022-09-10T18:18:15.204Z,22.00
2022-09-10T18:20:42.968Z,22.00
2022-09-10T18:23:09.689Z,21.90
2022-09-10T18:25:36.214Z,21.80
2022-09-10T18:28:03.036Z,21.80
2022-09-10T18:30:29.638Z,21.70
2022-09-10T18:32:56.239Z,21.70
2022-09-10T18:35:23.177Z,21.60
2022-09-10T18:37:52.512Z,21.50
2022-09-10T18:40:19.572Z,21.50
2022-09-10T18:42:47.709Z,21.40
2022-09-10T18:45:14.374Z,21.30
2022-09-10T18:47:44.988Z,21.30
2022-09-10T18:50:13.082Z,21.30
2022-09-10T18:52:39.695Z,21.30
2022-09-10T18:55:06.566Z,21.20
2022-09-10T18:57:33.182Z,21.20
2022-09-10T19:00:00.448Z,21.20
2022-09-10T19:02:27.171Z,21.20
2022-09-10T19:05:10.818Z,21.10
2022-09-10T19:07:38.662Z,21.10
2022-09-10T19:10:06.884Z,21.00
2022-09-10T19:12:33.626Z,21.00
2022-09-10T19:15:00.406Z,21.00
2022-09-10T19:17:26.955Z,21.00
2022-09-10T19:19:53.634Z,20.90
2022-09-10T19:22:20.279Z,21.00
2022-09-10T19:24:55.823Z,20.90
2022-09-10T19:27:23.778Z,20.90
2022-09-10T19:29:50.611Z,20.90
2022-09-10T19:32:19.517Z,20.80
2022-09-10T19:34:48.574Z,20.80
2022-09-10T19:37:15.225Z,20.80
2022-09-10T19:39:42.048Z,20.80
2022-09-10T19:42:08.658Z,20.80
2022-09-10T19:44:35.198Z,20.70
2022-09-10T19:47:03.946Z,20.70
2022-09-10T19:49:31.234Z,20.70
2022-09-10T19:51:57.912Z,20.60
2022-09-10T19:54:25.583Z,20.60
2022-09-10T19:56:52.135Z,20.50
2022-09-10T19:59:18.686Z,20.50
2022-09-10T20:01:46.037Z,20.50
2022-09-10T20:04:13.951Z,20.50
2022-09-10T20:06:42.556Z,20.50
2022-09-10T20:09:10.061Z,20.50
2022-09-10T20:11:37.271Z,20.40
2022-09-10T20:14:13.005Z,20.40
2022-09-10T20:16:42.211Z,20.40
2022-09-10T20:19:10.799Z,20.30
2022-09-10T20:21:37.413Z,20.30
2022-09-10T20:24:05.702Z,20.30
2022-09-10T20:26:33.682Z,20.20
2022-09-10T20:29:11.397Z,20.20
2022-09-10T20:31:40.811Z,20.10
2022-09-10T20:34:08.538Z,20.10
2022-09-10T20:36:35.572Z,20.10
2022-09-10T20:39:02.417Z,20.00
2022-09-10T20:41:30.142Z,19.90
2022-09-10T20:44:00.698Z,19.80
2022-09-10T20:46:28.550Z,19.70
2022-09-10T20:49:02.563Z,19.70
2022-09-10T20:51:30.419Z,19.70
2022-09-10T20:53:56.978Z,19.70
2022-09-10T20:56:23.759Z,19.60
2022-09-10T20:58:50.326Z,19.60
2022-09-10T21:01:18.966Z,19.60
2022-09-10T21:03:46.593Z,19.60
2022-09-10T21:06:14.019Z,19.60
2022-09-10T21:08:41.762Z,19.60
2022-09-10T21:11:09.695Z,19.60
2022-09-10T21:13:36.926Z,19.60
2022-09-10T21:16:06.099Z,19.60
2022-09-10T21:18:33.208Z,19.50
2022-09-10T21:21:06.758Z,19.50
2022-09-10T21:23:33.686Z,19.50
2022-09-10T21:26:00.250Z,19.40
2022-09-10T21:28:27.197Z,19.30
2022-09-10T21:30:53.895Z,19.30
2022-09-10T21:33:20.569Z,19.20
2022-09-10T21:35:47.103Z,19.20
2022-09-10T21:38:13.711Z,19.10
2022-09-10T21:40:40.883Z,19.20
2022-09-10T21:43:07.452Z,19.20
2022-09-10T21:45:36.378Z,19.20
2022-09-10T21:48:02.953Z,19.30
2022-09-10T21:50:29.511Z,19.30
2022-09-10T21:52:56.120Z,19.20
2022-09-10T21:55:23.220Z,19.20
2022-09-10T21:57:49.791Z,19.20
2022-09-10T22:00:16.413Z,19.20
2022-09-10T22:02:43.101Z,19.20
2022-09-10T22:05:09.706Z,19.20
2022-09-10T22:07:36.331Z,19.20
2022-09-10T22:10:05.790Z,19.10
2022-09-10T22:12:32.376Z,19.10
2022-09-10T22:14:58.967Z,19.10
2022-09-10T22:17:26.205Z,19.10
2022-09-10T22:19:52.860Z,19.00
2022-09-10T22:22:19.472Z,18.90
2022-09-10T22:24:46.006Z,18.90
2022-09-10T22:27:13.320Z,18.90
2022-09-10T22:29:39.871Z,18.90
2022-09-10T22:32:06.435Z,18.80
2022-09-10T22:34:32.993Z,18.90
2022-09-10T22:37:00.750Z,18.80
2022-09-10T22:39:29.602Z,18.80
2022-09-10T22:41:56.181Z,18.80
2022-09-10T22:44:23.293Z,18.80
2022-09-10T22:46:49.896Z,18.80
2022-09-10T22:49:16.925Z,18.80
2022-09-10T22:51:43.986Z,18.80
2022-09-10T22:54:10.895Z,18.70
2022-09-10T22:56:38.221Z,18.80
2022-09-10T22:59:05.156Z,18.70
2022-09-10T23:01:33.988Z,18.70
2022-09-10T23:04:01.599Z,18.70
2022-09-10T23:06:29.263Z,18.70
2022-09-10T23:08:57.193Z,18.60
2022-09-10T23:11:25.273Z,18.60
2022-09-10T23:13:59.413Z,18.50
2022-09-10T23:16:28.720Z,18.50
2022-09-10T23:18:56.355Z,18.40
2022-09-10T23:21:23.875Z,18.40
2022-09-10T23:23:51.801Z,18.30
2022-09-10T23:26:18.718Z,18.20
2022-09-10T23:28:46.580Z,18.30
2022-09-10T23:31:17.647Z,18.20
2022-09-10T23:33:55.138Z,18.20
2022-09-10T23:36:22.311Z,18.20
2022-09-10T23:38:49.191Z,18.20
2022-09-10T23:41:18.600Z,18.10
2022-09-10T23:43:45.380Z,18.10
2022-09-10T23:46:12.489Z,18.10
2022-09-10T23:48:39.647Z,18.10
2022-09-10T23:51:06.549Z,18.10
2022-09-10T23:53:33.420Z,18.10
2022-09-10T23:56:00.693Z,18.10
2022-09-10T23:58:27.378Z,18.00
